createdAt,value
2022-11-14T00:00:34.839Z,3.43
2022-11-14T00:03:03.984Z,3.43
2022-11-14T00:05:31.356Z,3.57
2022-11-14T00:07:58.717Z,3.73
2022-11-14T00:10:26.257Z,3.70
2022-11-14T00:17:39.291Z,4.10
2022-11-14T00:20:09.571Z,3.47
2022-11-14T00:22:37.179Z,4.07
2022-11-14T00:25:05.745Z,4.13
2022-11-14T00:27:33.286Z,4.73
2022-11-14T00:30:01.205Z,4.27
2022-11-14T00:32:28.488Z,4.60
2022-11-14T00:38:06.307Z,4.27
2022-11-14T00:40:33.917Z,4.53
2022-11-14T00:43:01.015Z,3.47
2022-11-14T00:45:28.266Z,4.67
2022-11-14T00:47:55.455Z,4.63
2022-11-14T00:50:22.856Z,4.47
2022-11-14T00:52:50.306Z,4.53
2022-11-14T00:59:50.517Z,4.67
2022-11-14T01:02:17.895Z,4.60
2022-11-14T01:04:45.115Z,4.80
2022-11-14T01:07:12.304Z,4.93
2022-11-14T01:09:40.044Z,5.03
2022-11-14T01:12:07.433Z,5.00
2022-11-14T01:14:34.741Z,4.60
2022-11-14T01:21:31.677Z,5.60
2022-11-14T01:23:59.695Z,6.13
2022-11-14T01:26:35.865Z,5.77
2022-11-14T01:29:06.127Z,5.07
2022-11-14T01:31:50.594Z,6.07
2022-11-14T01:34:33.046Z,6.00
2022-11-14T01:37:12.027Z,5.67
2022-11-14T01:39:41.117Z,5.47
2022-11-14T01:42:14.568Z,5.47
2022-11-14T01:47:31.016Z,5.93
2022-11-14T01:50:01.125Z,5.73
2022-11-14T01:52:32.425Z,5.90
2022-11-14T01:55:03.716Z,6.60
2022-11-14T01:57:36.298Z,5.97
2022-11-14T02:00:11.668Z,7.20
2022-11-14T02:02:40.377Z,6.03
2022-11-14T02:08:27.556Z,6.50
2022-11-14T02:10:55.774Z,6.40
2022-11-14T02:13:22.967Z,6.17
2022-11-14T02:15:52.886Z,6.03
2022-11-14T02:18:20.527Z,6.27
2022-11-14T02:20:49.395Z,5.93
2022-11-14T02:23:27.096Z,7.53
2022-11-14T02:25:54.996Z,6.90
2022-11-14T02:31:07.936Z,6.37
2022-11-14T02:33:35.574Z,6.90
2022-11-14T02:36:02.917Z,7.17
2022-11-14T02:38:30.768Z,7.60
2022-11-14T02:40:59.820Z,7.10
2022-11-14T02:43:27.496Z,6.37
2022-11-14T02:45:54.777Z,6.93
2022-11-14T02:48:23.194Z,7.53
2022-11-14T03:08:53.254Z,8.37
2022-11-14T03:11:20.817Z,6.50
2022-11-14T03:13:58.465Z,7.30
2022-11-14T03:16:37.384Z,7.27
2022-11-14T03:19:10.894Z,7.47
2022-11-14T03:22:00.527Z,7.20
2022-11-14T03:25:16.412Z,7.80
2022-11-14T03:27:44.288Z,7.70
2022-11-14T03:30:18.137Z,7.70
2022-11-14T03:35:49.215Z,7.90
2022-11-14T03:38:16.507Z,8.23
2022-11-14T03:40:44.226Z,8.87
2022-11-14T03:43:11.525Z,8.13
2022-11-14T03:45:39.027Z,9.90
2022-11-14T03:48:07.027Z,9.37
2022-11-14T03:50:34.968Z,8.73
2022-11-14T03:58:10.105Z,8.67
2022-11-14T04:00:40.804Z,9.10
2022-11-14T04:03:11.448Z,8.47
2022-11-14T04:05:38.690Z,8.60
2022-11-14T04:08:22.299Z,9.57
2022-11-14T04:10:52.580Z,8.40
2022-11-14T04:13:36.088Z,9.20
2022-11-14T04:16:11.215Z,9.17
2022-11-14T04:18:46.536Z,9.00
2022-11-14T04:24:12.035Z,10.67
2022-11-14T04:26:39.343Z,8.63
2022-11-14T04:29:06.657Z,9.00
2022-11-14T04:31:35.277Z,9.73
2022-11-14T04:34:08.726Z,9.90
2022-11-14T04:36:38.639Z,10.83
2022-11-14T04:39:10.965Z,10.03
2022-11-14T04:45:53.979Z,10.30
2022-11-14T04:48:22.169Z,10.67
2022-11-14T04:50:52.408Z,12.37
2022-11-14T04:53:28.732Z,12.50
2022-11-14T04:55:55.888Z,12.07
2022-11-14T04:58:30.963Z,11.03
2022-11-14T05:01:02.673Z,11.37
2022-11-14T05:08:22.875Z,11.77
2022-11-14T05:10:52.309Z,11.47
2022-11-14T05:13:19.996Z,12.03
2022-11-14T05:15:52.735Z,12.00
2022-11-14T05:18:20.127Z,12.00
2022-11-14T05:20:49.700Z,11.73
2022-11-14T05:23:24.315Z,12.23
2022-11-14T05:31:03.969Z,12.20
2022-11-14T05:33:31.529Z,12.23
2022-11-14T05:36:03.245Z,13.60
2022-11-14T05:38:30.920Z,12.80
2022-11-14T05:40:58.568Z,13.13
2022-11-14T05:43:26.805Z,11.93
2022-11-14T05:45:54.359Z,13.77
2022-11-14T05:48:23.427Z,12.17
2022-11-14T05:56:41.910Z,13.90
2022-11-14T05:59:09.340Z,13.57
2022-11-14T06:01:36.693Z,12.63
2022-11-14T06:04:06.840Z,14.40
2022-11-14T06:06:34.917Z,15.43
2022-11-14T06:09:02.598Z,14.03
2022-11-14T06:11:30.089Z,12.63
2022-11-14T06:22:10.489Z,13.77
2022-11-14T06:24:38.408Z,13.67
2022-11-14T06:27:08.006Z,13.43
2022-11-14T06:29:35.764Z,13.50
2022-11-14T06:32:03.354Z,15.07
2022-11-14T06:34:30.907Z,14.07
2022-11-14T06:36:58.278Z,16.03
2022-11-14T06:39:27.368Z,16.63
2022-11-14T06:44:53.560Z,16.73
2022-11-14T06:47:21.018Z,18.13
2022-11-14T06:49:48.968Z,16.20
2022-11-14T06:52:16.220Z,17.17
2022-11-14T06:54:45.018Z,17.37
2022-11-14T06:57:12.475Z,17.93
2022-11-14T06:59:39.589Z,18.23
2022-11-14T07:04:49.309Z,17.63
2022-11-14T07:07:16.650Z,20.33
2022-11-14T07:09:45.546Z,20.90
2022-11-14T07:12:13.839Z,17.60
2022-11-14T07:14:43.146Z,19.17
2022-11-14T07:17:10.606Z,18.53
2022-11-14T07:19:42.747Z,19.87
2022-11-14T07:26:46.408Z,21.97
2022-11-14T07:29:13.638Z,21.87
2022-11-14T07:31:41.310Z,22.13
2022-11-14T07:34:10.667Z,20.87
2022-11-14T07:36:38.055Z,20.93
2022-11-14T07:39:05.551Z,22.10
2022-11-14T07:46:54.366Z,22.37
2022-11-14T07:49:22.646Z,22.00
2022-11-14T07:51:49.912Z,23.97
2022-11-14T07:54:17.598Z,22.17
2022-11-14T07:56:45.027Z,24.77
2022-11-14T07:59:12.477Z,22.43
2022-11-14T08:01:39.866Z,23.93
2022-11-14T08:04:08.551Z,26.00
2022-11-14T08:11:52.835Z,23.37
2022-11-14T08:14:22.388Z,23.87
2022-11-14T08:16:51.645Z,20.77
2022-11-14T08:19:18.987Z,22.50
2022-11-14T08:21:46.772Z,21.30
2022-11-14T08:24:16.988Z,22.00
2022-11-14T08:26:46.568Z,21.63
2022-11-14T08:36:38.586Z,22.90
2022-11-14T08:39:06.735Z,20.83
2022-11-14T08:41:34.486Z,22.43
2022-11-14T08:44:03.448Z,21.83
2022-11-14T08:46:31.148Z,23.23
2022-11-14T08:48:58.479Z,22.10
2022-11-14T08:51:25.760Z,22.13
2022-11-14T08:53:54.091Z,22.70
2022-11-14T09:01:57.979Z,25.77
2022-11-14T09:04:25.471Z,27.17
2022-11-14T09:06:52.820Z,26.93
2022-11-14T09:09:20.146Z,23.73
2022-11-14T09:11:47.417Z,30.13
2022-11-14T09:14:15.295Z,29.70
2022-11-14T09:16:45.817Z,25.57
2022-11-14T09:22:41.949Z,26.23
2022-11-14T09:25:09.567Z,23.30
2022-11-14T09:27:37.617Z,40.50
2022-11-14T09:30:06.651Z,23.80
2022-11-14T09:32:34.007Z,24.83
2022-11-14T09:35:01.956Z,22.13
2022-11-14T09:37:29.908Z,26.93
2022-11-14T09:45:06.739Z,23.67
2022-11-14T09:47:43.038Z,22.73
2022-11-14T09:50:24.483Z,23.57
2022-11-14T09:52:56.307Z,37.53
2022-11-14T09:55:37.218Z,29.03
2022-11-14T09:58:30.913Z,31.13
2022-11-14T10:01:14.002Z,24.03
2022-11-14T10:06:40.278Z,25.80
2022-11-14T10:09:33.736Z,31.40
2022-11-14T10:12:12.047Z,31.53
2022-11-14T10:14:54.465Z,38.27
2022-11-14T10:17:46.285Z,25.70
2022-11-14T10:20:21.087Z,26.87
2022-11-14T10:23:01.820Z,33.30
2022-11-14T10:30:49.758Z,29.57
2022-11-14T10:33:27.948Z,22.27
2022-11-14T10:36:02.946Z,26.67
2022-11-14T10:38:35.459Z,24.80
2022-11-14T10:41:06.946Z,26.97
2022-11-14T10:43:39.718Z,25.63
2022-11-14T10:46:15.396Z,24.63
2022-11-14T10:48:50.197Z,21.57
2022-11-14T10:56:19.709Z,21.07
2022-11-14T10:58:50.593Z,20.67
2022-11-14T11:01:39.520Z,21.53
2022-11-14T11:04:15.317Z,19.63
2022-11-14T11:06:43.583Z,20.03
2022-11-14T11:09:34.873Z,20.87
2022-11-14T11:12:06.373Z,19.60
2022-11-14T11:14:35.164Z,21.43
2022-11-14T11:22:36.629Z,20.07
2022-11-14T11:25:25.146Z,20.07
2022-11-14T11:28:11.545Z,19.73
2022-11-14T11:30:41.019Z,19.80
2022-11-14T11:33:27.668Z,19.03
2022-11-14T11:36:03.459Z,20.00
2022-11-14T11:44:03.217Z,17.13
2022-11-14T11:46:36.907Z,17.20
2022-11-14T11:49:14.118Z,18.20
2022-11-14T11:51:44.378Z,16.40
2022-11-14T11:54:17.118Z,16.83
2022-11-14T11:56:48.186Z,18.10
2022-11-14T11:59:29.699Z,16.93
2022-11-14T12:02:01.262Z,17.30
2022-11-14T12:10:09.404Z,16.43
2022-11-14T12:12:42.607Z,17.03
2022-11-14T12:15:26.396Z,16.20
2022-11-14T12:18:36.135Z,14.63
2022-11-14T12:21:19.266Z,15.23
2022-11-14T12:24:15.053Z,14.13
2022-11-14T12:31:31.181Z,15.60
2022-11-14T12:34:07.136Z,15.20
2022-11-14T12:36:38.147Z,14.90
2022-11-14T12:42:35.306Z,13.90
2022-11-14T12:45:10.876Z,14.80
2022-11-14T12:48:15.940Z,13.67
2022-11-14T12:53:46.658Z,12.70
2022-11-14T12:56:47.697Z,13.40
2022-11-14T12:59:35.576Z,13.67
2022-11-14T13:02:36.586Z,12.23
2022-11-14T13:05:36.646Z,12.53
2022-11-14T13:08:24.078Z,12.27
2022-11-14T13:15:48.828Z,10.80
2022-11-14T13:18:40.386Z,12.30
2022-11-14T13:21:40.963Z,11.17
2022-11-14T13:24:13.658Z,12.40
2022-11-14T13:26:53.432Z,12.23
2022-11-14T13:29:49.209Z,11.43
2022-11-14T13:41:07.959Z,12.93
2022-11-14T13:43:51.537Z,10.57
2022-11-14T13:46:29.614Z,11.37
2022-11-14T13:49:16.091Z,11.03
2022-11-14T13:51:45.946Z,11.20
2022-11-14T13:54:17.572Z,11.10
2022-11-14T13:56:59.017Z,10.87
2022-11-14T13:59:46.287Z,11.30
2022-11-14T14:11:50.868Z,12.17
2022-11-14T14:14:49.147Z,10.73
2022-11-14T14:17:34.567Z,9.50
2022-11-14T14:20:49.286Z,9.87
2022-11-14T14:23:32.500Z,8.90
2022-11-14T14:26:30.529Z,9.20
2022-11-14T14:29:41.746Z,8.97
2022-11-14T14:37:20.499Z,7.57
2022-11-14T14:40:03.516Z,8.10
2022-11-14T14:42:37.669Z,7.87
2022-11-14T14:45:16.969Z,7.40
2022-11-14T14:47:48.188Z,7.10
2022-11-14T14:50:20.637Z,7.60
2022-11-14T14:52:57.081Z,7.10
2022-11-14T14:55:27.316Z,7.10
2022-11-14T15:03:00.664Z,7.67
2022-11-14T15:05:31.799Z,8.33
2022-11-14T15:08:03.408Z,8.10
2022-11-14T15:10:32.260Z,8.50
2022-11-14T15:13:00.109Z,7.57
2022-11-14T15:15:28.470Z,7.80
2022-11-14T15:18:00.192Z,8.70
2022-11-14T15:25:36.349Z,9.30
2022-11-14T15:28:04.089Z,8.53
2022-11-14T15:30:34.258Z,8.53
2022-11-14T15:33:05.638Z,8.83
2022-11-14T15:35:40.710Z,8.70
2022-11-14T15:44:37.638Z,8.43
2022-11-14T15:47:07.960Z,8.43
2022-11-14T15:49:35.736Z,8.63
2022-11-14T15:52:05.134Z,7.27
2022-11-14T15:54:38.016Z,8.40
2022-11-14T15:57:16.957Z,8.33
2022-11-14T15:59:45.820Z,7.93
2022-11-14T16:02:20.197Z,7.93
2022-11-14T16:10:00.732Z,7.93
2022-11-14T16:12:28.650Z,8.53
2022-11-14T16:14:56.831Z,7.53
2022-11-14T16:17:24.769Z,7.57
2022-11-14T16:19:52.316Z,8.50
2022-11-14T16:22:19.668Z,7.67
2022-11-14T16:24:52.149Z,8.37
2022-11-14T16:32:20.047Z,8.40
2022-11-14T16:34:50.938Z,8.37
2022-11-14T16:37:18.364Z,7.63
2022-11-14T16:39:50.460Z,9.23
2022-11-14T16:42:18.730Z,9.27
2022-11-14T16:44:50.538Z,9.27
2022-11-14T16:47:20.957Z,8.90
2022-11-14T16:49:51.569Z,8.00
2022-11-14T16:57:28.791Z,8.60
2022-11-14T17:00:01.277Z,9.10
2022-11-14T17:02:32.526Z,9.43
2022-11-14T17:05:03.626Z,9.13
2022-11-14T17:07:37.644Z,10.13
2022-11-14T17:10:08.099Z,9.07
2022-11-14T17:12:39.460Z,10.50
2022-11-14T17:15:07.955Z,10.20
2022-11-14T17:22:41.085Z,10.60
2022-11-14T17:25:09.070Z,11.17
2022-11-14T17:27:36.560Z,10.27
2022-11-14T17:30:03.938Z,11.10
2022-11-14T17:32:30.968Z,10.63
2022-11-14T17:34:58.539Z,11.17
2022-11-14T17:37:25.637Z,10.13
2022-11-14T17:44:54.219Z,11.73
2022-11-14T17:47:21.679Z,12.00
2022-11-14T17:49:49.237Z,10.93
2022-11-14T17:52:16.915Z,11.20
2022-11-14T17:54:44.837Z,11.80
2022-11-14T17:57:13.271Z,11.50
2022-11-14T17:59:41.108Z,11.73
2022-11-14T18:02:17.557Z,12.07
2022-11-14T18:09:51.930Z,13.10
2022-11-14T18:12:19.660Z,11.97
2022-11-14T18:14:49.508Z,11.90
2022-11-14T18:17:17.071Z,11.40
2022-11-14T18:19:44.897Z,11.80
2022-11-14T18:22:13.271Z,12.40
2022-11-14T18:24:46.155Z,13.90
2022-11-14T18:35:08.516Z,13.10
2022-11-14T18:37:36.227Z,12.80
2022-11-14T18:40:04.739Z,13.70
2022-11-14T18:42:32.189Z,12.97
2022-11-14T18:44:59.708Z,12.67
2022-11-14T18:47:28.901Z,13.50
2022-11-14T18:49:56.263Z,12.23
2022-11-14T18:52:25.840Z,13.17
2022-11-14T18:57:35.694Z,12.73
2022-11-14T19:00:05.820Z,12.57
2022-11-14T19:02:35.060Z,13.73
2022-11-14T19:05:03.338Z,13.27
2022-11-14T19:07:31.067Z,13.17
2022-11-14T19:09:58.481Z,12.27
2022-11-14T19:12:25.836Z,13.90
2022-11-14T19:14:57.599Z,15.30
2022-11-14T19:22:29.727Z,14.90
2022-11-14T19:24:58.649Z,15.40
2022-11-14T19:27:33.227Z,15.80
2022-11-14T19:30:00.678Z,15.87
2022-11-14T19:32:28.668Z,15.80
2022-11-14T19:34:56.517Z,16.07
2022-11-14T19:37:23.917Z,13.63
2022-11-14T19:42:31.580Z,13.37
2022-11-14T19:45:00.437Z,10.90
2022-11-14T19:47:28.873Z,12.63
2022-11-14T19:49:56.869Z,12.03
2022-11-14T19:52:24.500Z,11.67
2022-11-14T19:54:52.338Z,11.27
2022-11-14T19:57:20.690Z,11.80
2022-11-14T19:59:49.619Z,12.00
2022-11-14T20:07:23.273Z,12.43
2022-11-14T20:09:50.737Z,12.17
2022-11-14T20:12:18.747Z,11.57
2022-11-14T20:14:47.026Z,11.67
2022-11-14T20:17:15.329Z,11.23
2022-11-14T20:19:43.326Z,11.47
2022-11-14T20:22:11.692Z,11.87
2022-11-14T20:24:43.606Z,12.93
2022-11-14T20:32:16.087Z,11.27
2022-11-14T20:34:43.467Z,10.70
2022-11-14T20:37:12.201Z,13.47
2022-11-14T20:39:39.756Z,11.47
2022-11-14T20:42:07.469Z,10.63
2022-11-14T20:44:37.866Z,11.50
2022-11-14T20:47:09.835Z,11.57
2022-11-14T20:54:43.689Z,9.97
2022-11-14T20:57:12.307Z,10.03
2022-11-14T20:59:39.869Z,10.33
2022-11-14T21:02:07.300Z,9.77
2022-11-14T21:04:34.819Z,10.07
2022-11-14T21:07:02.528Z,9.40
2022-11-14T21:09:29.874Z,9.07
2022-11-14T21:11:58.339Z,8.67
2022-11-14T21:19:32.347Z,7.23
2022-11-14T21:22:00.227Z,8.67
2022-11-14T21:24:28.247Z,9.00
2022-11-14T21:26:55.178Z,7.90
2022-11-14T21:29:22.849Z,7.20
2022-11-14T21:31:50.530Z,7.10
2022-11-14T21:34:18.221Z,7.50
2022-11-14T21:36:47.950Z,7.23
2022-11-14T21:39:17.614Z,7.73
2022-11-14T21:46:55.831Z,6.53
2022-11-14T21:49:27.726Z,6.93
2022-11-14T21:51:55.880Z,7.03
2022-11-14T21:54:24.638Z,6.80
2022-11-14T21:56:51.959Z,6.87
2022-11-14T21:59:21.252Z,6.43
2022-11-14T22:02:08.232Z,5.90
2022-11-14T22:04:37.983Z,6.33
2022-11-14T22:12:10.900Z,5.40
2022-11-14T22:14:38.141Z,6.43
2022-11-14T22:17:05.379Z,5.93
2022-11-14T22:19:33.316Z,5.63
2022-11-14T22:22:00.620Z,5.20
2022-11-14T22:24:33.097Z,5.33
2022-11-14T22:27:00.419Z,5.33
2022-11-14T22:34:28.077Z,5.30
2022-11-14T22:36:55.361Z,6.10
2022-11-14T22:39:22.722Z,5.53
2022-11-14T22:41:50.542Z,4.90
2022-11-14T22:44:18.158Z,5.40
2022-11-14T22:46:45.586Z,5.33
2022-11-14T22:49:20.644Z,4.77
2022-11-14T22:56:11.552Z,5.40
2022-11-14T22:58:40.497Z,5.50
2022-11-14T23:01:13.438Z,5.10
2022-11-14T23:03:54.515Z,5.17
2022-11-14T23:06:24.256Z,4.87
2022-11-14T23:08:52.465Z,4.87
2022-11-14T23:11:25.671Z,5.40
2022-11-14T23:13:55.179Z,4.87
2022-11-14T23:21:28.079Z,4.40
2022-11-14T23:23:56.289Z,4.90
2022-11-14T23:26:24.589Z,5.33
2022-11-14T23:28:52.497Z,5.43
2022-11-14T23:31:22.908Z,4.63
2022-11-14T23:33:52.016Z,5.73
2022-11-14T23:36:19.536Z,4.93
2022-11-14T23:43:24.257Z,4.47
2022-11-14T23:45:51.616Z,4.33
2022-11-14T23:48:20.206Z,5.10
2022-11-14T23:50:50.807Z,5.13
2022-11-14T23:53:19.110Z,5.57
2022-11-14T23:55:52.380Z,5.67
2022-11-14T23:58:19.797Z,4.97
